Sunray, Texas
Current Conditions -  °F | °C
As of 2:35 PM on Friday 19 Dec 2014 (Local Time) from KDUX Reporting Station
Overcast Overcast  
Wind Chill: 34°   Ceiling: 1200
Heat Index: 39°   Visibility: 10mi
Dew Point: 33°   Wind: 8mph
Humidity: 79%   Direction: 220°SW
Pressure: 30.11"   Gusts: NA
Location:  36.02°N, 101.82°W
Report Text: KDUX 192035Z AUTO 22007KT 10SM OVC012 04/01 A3011 RMK AO2 T00410007
Loading
Personal Weather Stations






























Interactive Weather Map New forecast layout! Learn more

10-Day Weather Forecast

Advertisements
Track Severe Weather on mobile